Time;durP1;ratioP1;P1;durP2;ratioP2;P2;SDS_P1;SDS_P2;PMS_P1;PMS_P2;Temp;Humidity;BMP_temperature;BMP_pressure;BME280_temperature;BME280_humidity;BME280_pressure;Samples;Min_cycle;Max_cycle;Signal;HPM_P1;HPM_P2
2022/12/31 00:00:27;;;;;;;;;;;13.70;99.90;;;;;;5119990;28;19961;-49
2022/12/31 00:02:53;;;;;;;;;;;13.70;99.90;;;;;;5119968;28;19923;-52
2022/12/31 00:05:19;;;;;;;;;;;13.60;99.90;;;;;;5120085;28;19950;-53
2022/12/31 00:07:44;;;;;;;;;;;13.70;99.90;;;;;;5120096;28;19912;-51
2022/12/31 00:10:10;;;;;;;;;;;13.60;99.90;;;;;;5119344;28;19915;-53
2022/12/31 00:12:35;;;;;;;;;;;13.60;99.90;;;;;;5120301;28;19912;-46
2022/12/31 00:15:01;;;;;;;;;;;13.60;99.90;;;;;;5120337;28;19942;-51
2022/12/31 00:17:27;;;;;;;;;;;13.60;99.90;;;;;;5119783;28;19960;-49
2022/12/31 00:19:52;;;;;;;;;;;13.60;99.90;;;;;;5119989;28;19951;-47
2022/12/31 00:22:18;;;;;;;;;;;13.60;99.90;;;;;;5119720;28;19944;-49
2022/12/31 00:24:44;;;;;;;;;;;13.60;99.90;;;;;;5119880;28;20308;-48
2022/12/31 00:27:09;;;;;;;;;;;13.60;99.90;;;;;;5119635;28;19908;-46
2022/12/31 00:29:35;;;;;;;;;;;13.60;99.90;;;;;;5120122;28;20462;-53
2022/12/31 00:32:00;;;;;;;;;;;13.60;99.90;;;;;;5119556;28;19911;-53
2022/12/31 00:34:26;;;;;;;;;;;13.60;99.90;;;;;;5119284;28;19908;-52
2022/12/31 00:36:52;;;;;;;;;;;13.60;99.90;;;;;;5119429;28;19962;-49
2022/12/31 00:39:17;;;;;;;;;;;13.50;99.90;;;;;;5119748;28;19911;-50
2022/12/31 00:41:43;;;;;;;;;;;13.50;99.90;;;;;;5119381;28;20273;-54
2022/12/31 00:44:12;;;;;;;;;;;13.50;99.90;;;;;;5119617;28;20465;-51
2022/12/31 00:46:38;;;;;;;;;;;13.50;99.90;;;;;;5119478;28;19914;-52
2022/12/31 00:49:03;;;;;;;;;;;13.50;99.90;;;;;;5119801;28;19908;-52
2022/12/31 00:51:29;;;;;;;;;;;13.60;99.90;;;;;;5119294;28;19908;-52
2022/12/31 00:53:55;;;;;;;;;;;13.50;99.90;;;;;;5119582;28;20325;-52
2022/12/31 00:56:22;;;;;;;;;;;13.50;99.90;;;;;;5119067;28;19956;-51
2022/12/31 00:58:47;;;;;;;;;;;13.50;99.90;;;;;;5118864;28;20282;-52
2022/12/31 01:01:15;;;;;;;;;;;13.50;99.90;;;;;;5100616;28;19908;-51
2022/12/31 01:03:40;;;;;;;;;;;13.50;99.90;;;;;;5100751;28;19911;-51
2022/12/31 01:06:06;;;;;;;;;;;13.50;99.90;;;;;;5119171;28;19912;-52
2022/12/31 01:08:32;;;;;;;;;;;13.50;99.90;;;;;;5119108;28;19915;-53
2022/12/31 01:13:42;;;;;;;;;;;13.50;99.90;;;;;;5119133;28;20408;-50
2022/12/31 01:16:08;;;;;;;;;;;13.60;99.90;;;;;;5118878;28;19911;-48
2022/12/31 01:18:34;;;;;;;;;;;13.50;99.90;;;;;;5118319;28;20270;-52
2022/12/31 01:21:00;;;;;;;;;;;13.60;99.90;;;;;;5099821;28;19908;-51
2022/12/31 01:23:26;;;;;;;;;;;13.60;99.90;;;;;;5118847;28;19934;-53
2022/12/31 01:25:51;;;;;;;;;;;13.60;99.90;;;;;;5118920;28;20366;-50
2022/12/31 01:28:17;;;;;;;;;;;13.60;99.90;;;;;;5118951;28;19908;-50
2022/12/31 01:30:42;;;;;;;;;;;13.60;99.90;;;;;;5118489;28;19916;-49
2022/12/31 01:33:08;;;;;;;;;;;13.60;99.90;;;;;;5118911;28;20334;-52
2022/12/31 01:35:34;;;;;;;;;;;13.70;99.90;;;;;;5118527;28;19908;-52
2022/12/31 01:38:00;;;;;;;;;;;13.70;99.90;;;;;;5118461;28;19943;-47
2022/12/31 01:40:26;;;;;;;;;;;13.70;99.90;;;;;;5118964;28;20350;-53
2022/12/31 01:42:55;;;;;;;;;;;13.70;99.90;;;;;;5118491;28;19908;-49
2022/12/31 01:45:21;;;;;;;;;;;13.70;99.90;;;;;;5118439;28;19908;-53
2022/12/31 01:47:48;;;;;;;;;;;13.70;99.90;;;;;;5118242;28;19907;-48
2022/12/31 01:50:16;;;;;;;;;;;13.80;99.90;;;;;;5118373;28;19915;-51
2022/12/31 01:52:46;;;;;;;;;;;13.70;99.90;;;;;;5118389;28;19929;-51
2022/12/31 01:55:19;;;;;;;;;;;13.70;99.90;;;;;;5118959;28;19908;-51
2022/12/31 01:57:45;;;;;;;;;;;13.80;99.90;;;;;;5118210;28;20287;-51
2022/12/31 02:00:11;;;;;;;;;;;13.80;99.90;;;;;;5118458;28;20040;-51
2022/12/31 02:02:37;;;;;;;;;;;13.70;99.90;;;;;;5118126;28;20382;-51
2022/12/31 02:05:06;;;;;;;;;;;13.80;99.90;;;;;;5118150;28;19930;-52
2022/12/31 02:07:32;;;;;;;;;;;13.70;99.90;;;;;;5118194;28;19908;-51
2022/12/31 02:09:57;;;;;;;;;;;13.70;99.90;;;;;;5118531;28;19926;-51
2022/12/31 02:12:23;;;;;;;;;;;13.70;99.90;;;;;;5118125;28;19914;-48
2022/12/31 02:14:50;;;;;;;;;;;13.80;99.90;;;;;;5118457;28;19918;-53
2022/12/31 02:17:25;;;;;;;;;;;13.70;99.90;;;;;;5117968;28;19919;-47
2022/12/31 02:20:10;;;;;;;;;;;13.70;99.90;;;;;;5118269;28;19978;-52
2022/12/31 02:22:35;;;;;;;;;;;13.70;99.90;;;;;;5118271;28;19956;-50
2022/12/31 02:25:07;;;;;;;;;;;13.70;99.90;;;;;;5118101;28;19991;-51
2022/12/31 02:27:45;;;;;;;;;;;13.70;99.90;;;;;;5118447;28;19949;-48
2022/12/31 02:30:21;;;;;;;;;;;13.70;99.90;;;;;;5118020;28;19952;-51
2022/12/31 02:33:05;;;;;;;;;;;13.70;99.90;;;;;;5118541;28;19908;-50
2022/12/31 02:35:37;;;;;;;;;;;13.70;99.90;;;;;;5121919;28;19929;-50
2022/12/31 02:38:07;;;;;;;;;;;13.70;99.90;;;;;;5122000;28;20378;-53
2022/12/31 02:40:34;;;;;;;;;;;13.80;99.90;;;;;;5121838;28;20017;-51
2022/12/31 02:43:00;;;;;;;;;;;13.80;99.90;;;;;;5121914;28;19908;-52
2022/12/31 02:45:30;;;;;;;;;;;13.80;99.90;;;;;;5121603;28;19911;-52
2022/12/31 02:48:19;;;;;;;;;;;13.80;99.90;;;;;;5121870;28;19912;-53
2022/12/31 02:50:56;;;;;;;;;;;13.80;99.90;;;;;;5113067;28;19908;-50
2022/12/31 02:53:31;;;;;;;;;;;13.80;99.90;;;;;;5103130;28;20392;-50
2022/12/31 02:56:01;;;;;;;;;;;13.80;99.90;;;;;;5121729;28;19918;-51
2022/12/31 03:02:12;;;;;;;;;;;13.80;99.90;;;;;;5121373;28;19912;-48
2022/12/31 03:04:30;;;;;;;;;;;13.80;99.90;;;;;;5121768;28;19961;-51
2022/12/31 03:06:48;;;;;;;;;;;13.80;99.90;;;;;;5121112;28;20370;-48
2022/12/31 03:09:14;;;;;;;;;;;13.80;99.90;;;;;;5121273;28;19930;-47
2022/12/31 03:14:24;;;;;;;;;;;13.80;99.90;;;;;;5121186;28;19934;-53
2022/12/31 03:16:50;;;;;;;;;;;13.80;99.90;;;;;;5120949;28;19912;-49
2022/12/31 03:27:28;;;;;;;;;;;13.80;99.90;;;;;;5120741;28;19915;-51
2022/12/31 03:29:54;;;;;;;;;;;13.80;99.90;;;;;;5120808;28;20366;-47
2022/12/31 03:32:19;;;;;;;;;;;13.80;99.90;;;;;;5120808;28;19914;-49
2022/12/31 03:34:45;;;;;;;;;;;13.70;99.90;;;;;;5120866;28;19907;-50
2022/12/31 03:37:10;;;;;;;;;;;13.80;99.90;;;;;;5120623;28;19967;-50
2022/12/31 03:39:36;;;;;;;;;;;13.70;99.90;;;;;;5120802;28;19916;-53
2022/12/31 03:42:02;;;;;;;;;;;13.80;99.90;;;;;;5120709;28;19977;-52
2022/12/31 03:44:27;;;;;;;;;;;13.80;99.90;;;;;;5120620;28;19915;-50
2022/12/31 03:46:53;;;;;;;;;;;13.80;99.90;;;;;;5120987;28;20355;-51
2022/12/31 03:49:18;;;;;;;;;;;13.80;99.90;;;;;;5120481;28;20003;-52
2022/12/31 03:51:44;;;;;;;;;;;13.80;99.90;;;;;;5120708;28;19922;-50
2022/12/31 03:54:10;;;;;;;;;;;13.80;99.90;;;;;;5120414;28;19914;-51
2022/12/31 03:56:35;;;;;;;;;;;13.80;99.90;;;;;;5120578;28;19936;-50
2022/12/31 03:59:01;;;;;;;;;;;13.80;99.90;;;;;;5120194;28;19908;-50
2022/12/31 04:01:26;;;;;;;;;;;13.70;99.90;;;;;;5120396;28;19908;-51
2022/12/31 04:03:52;;;;;;;;;;;13.70;99.90;;;;;;5120424;28;19908;-48
2022/12/31 04:06:18;;;;;;;;;;;13.70;99.90;;;;;;5120122;28;19984;-47
2022/12/31 04:08:43;;;;;;;;;;;13.70;99.90;;;;;;5120273;28;20002;-48
2022/12/31 04:11:09;;;;;;;;;;;13.70;99.90;;;;;;5120002;28;20388;-54
2022/12/31 04:13:34;;;;;;;;;;;13.70;99.90;;;;;;5120169;28;19908;-50
2022/12/31 04:16:00;;;;;;;;;;;13.70;99.90;;;;;;5119819;28;19915;-49
2022/12/31 04:18:26;;;;;;;;;;;13.70;99.90;;;;;;5120013;28;19965;-52
2022/12/31 04:20:51;;;;;;;;;;;13.70;99.90;;;;;;5120037;28;19908;-50
2022/12/31 04:23:17;;;;;;;;;;;13.70;99.90;;;;;;5119831;28;19915;-53
2022/12/31 04:25:42;;;;;;;;;;;13.70;99.90;;;;;;5119736;28;19908;-50
2022/12/31 04:28:08;;;;;;;;;;;13.70;99.90;;;;;;5119994;28;19908;-51
2022/12/31 04:30:33;;;;;;;;;;;13.70;99.90;;;;;;5119824;28;19930;-51
2022/12/31 04:32:59;;;;;;;;;;;13.70;99.90;;;;;;5119736;28;19911;-53
2022/12/31 04:35:25;;;;;;;;;;;13.70;99.90;;;;;;5119744;28;19937;-53
2022/12/31 04:37:50;;;;;;;;;;;13.70;99.90;;;;;;5119894;28;19950;-49
2022/12/31 04:40:16;;;;;;;;;;;13.70;99.90;;;;;;5119490;28;19983;-53
2022/12/31 04:42:41;;;;;;;;;;;13.70;99.90;;;;;;5119575;28;19914;-49
2022/12/31 04:45:07;;;;;;;;;;;13.70;99.90;;;;;;5119514;28;19956;-48
2022/12/31 04:47:33;;;;;;;;;;;13.70;99.90;;;;;;5119692;28;20282;-50
2022/12/31 04:49:58;;;;;;;;;;;13.70;99.90;;;;;;5119521;28;19914;-48
2022/12/31 04:52:24;;;;;;;;;;;13.60;99.90;;;;;;5119427;28;20258;-50
2022/12/31 04:54:50;;;;;;;;;;;13.60;99.90;;;;;;5119178;28;20278;-49
2022/12/31 04:57:15;;;;;;;;;;;13.60;99.90;;;;;;5118633;28;19919;-51
2022/12/31 04:59:41;;;;;;;;;;;13.50;99.90;;;;;;5119562;28;19908;-49
2022/12/31 05:02:06;;;;;;;;;;;13.50;99.90;;;;;;5118816;28;19920;-47
2022/12/31 05:04:32;;;;;;;;;;;13.50;99.90;;;;;;5100726;28;19907;-49
2022/12/31 05:06:58;;;;;;;;;;;13.50;99.90;;;;;;5119313;28;19915;-50
2022/12/31 05:09:26;;;;;;;;;;;13.50;99.90;;;;;;5118896;28;19934;-49
2022/12/31 05:11:51;;;;;;;;;;;13.50;99.90;;;;;;5119328;28;19952;-52
2022/12/31 05:14:17;;;;;;;;;;;13.50;99.90;;;;;;5118976;28;19908;-48
2022/12/31 05:16:43;;;;;;;;;;;13.50;99.90;;;;;;5119077;28;19919;-51
2022/12/31 05:19:08;;;;;;;;;;;13.50;99.90;;;;;;5118960;28;19907;-51
2022/12/31 05:21:34;;;;;;;;;;;13.40;99.90;;;;;;5118866;28;20362;-52
2022/12/31 05:24:00;;;;;;;;;;;13.40;99.90;;;;;;5118916;28;20358;-49
2022/12/31 05:26:25;;;;;;;;;;;13.40;99.90;;;;;;5118637;28;19914;-52
2022/12/31 05:28:51;;;;;;;;;;;13.40;99.90;;;;;;5118952;28;20366;-52
2022/12/31 05:31:16;;;;;;;;;;;13.30;99.90;;;;;;5118774;28;20351;-51
2022/12/31 05:33:42;;;;;;;;;;;13.20;99.90;;;;;;5118665;28;19957;-52
2022/12/31 05:36:08;;;;;;;;;;;13.20;99.90;;;;;;5118456;28;19953;-52
2022/12/31 05:38:33;;;;;;;;;;;13.20;99.90;;;;;;5119028;28;19908;-48
2022/12/31 05:41:00;;;;;;;;;;;13.20;99.90;;;;;;5118667;28;19954;-48
2022/12/31 05:43:25;;;;;;;;;;;13.10;99.90;;;;;;5118641;28;19992;-51
2022/12/31 05:45:51;;;;;;;;;;;13.10;99.90;;;;;;5118440;28;19908;-53
2022/12/31 05:48:16;;;;;;;;;;;13.10;99.90;;;;;;5118635;28;19908;-53
2022/12/31 05:50:42;;;;;;;;;;;13.10;99.90;;;;;;5118363;28;20283;-51
2022/12/31 05:53:08;;;;;;;;;;;13.10;99.90;;;;;;5118532;28;19914;-53
2022/12/31 05:55:33;;;;;;;;;;;13.20;99.90;;;;;;5118286;28;19950;-53
2022/12/31 05:57:59;;;;;;;;;;;13.20;99.90;;;;;;5118412;28;19998;-49
2022/12/31 06:00:24;;;;;;;;;;;13.20;99.90;;;;;;5118777;28;19990;-49
2022/12/31 06:02:50;;;;;;;;;;;13.20;99.90;;;;;;5117968;28;19941;-48
2022/12/31 06:05:16;;;;;;;;;;;13.20;99.90;;;;;;5118743;28;19927;-48
2022/12/31 06:07:41;;;;;;;;;;;13.20;99.90;;;;;;5118946;28;19915;-51
2022/12/31 06:10:07;;;;;;;;;;;13.20;99.90;;;;;;5122761;28;19907;-53
2022/12/31 06:12:34;;;;;;;;;;;13.10;99.90;;;;;;5122317;28;19915;-49
2022/12/31 06:15:00;;;;;;;;;;;13.20;99.90;;;;;;5122448;28;19914;-54
2022/12/31 06:17:25;;;;;;;;;;;13.20;99.90;;;;;;5122080;28;19975;-49
2022/12/31 06:19:51;;;;;;;;;;;13.20;99.90;;;;;;5122524;28;19990;-50
2022/12/31 06:22:17;;;;;;;;;;;13.10;99.90;;;;;;5122372;28;19914;-52
2022/12/31 06:24:42;;;;;;;;;;;13.10;99.90;;;;;;5122646;28;20014;-49
2022/12/31 06:27:08;;;;;;;;;;;13.10;99.90;;;;;;5122511;28;19993;-53
2022/12/31 06:29:34;;;;;;;;;;;13.10;99.90;;;;;;5121960;28;19915;-50
2022/12/31 06:31:59;;;;;;;;;;;13.10;99.90;;;;;;5121678;28;19908;-48
2022/12/31 06:34:25;;;;;;;;;;;13.10;99.90;;;;;;5103574;28;19908;-49
2022/12/31 06:36:51;;;;;;;;;;;13.10;99.90;;;;;;5121602;28;19926;-50
2022/12/31 06:39:17;;;;;;;;;;;13.10;99.90;;;;;;5122271;28;19958;-51
2022/12/31 06:41:42;;;;;;;;;;;13.10;99.90;;;;;;5121763;28;20003;-52
2022/12/31 06:44:08;;;;;;;;;;;13.00;99.90;;;;;;5121648;28;20366;-49
2022/12/31 06:46:33;;;;;;;;;;;13.00;99.90;;;;;;5121621;28;19907;-50
2022/12/31 06:48:59;;;;;;;;;;;13.00;99.90;;;;;;5122056;28;19908;-50
2022/12/31 06:51:25;;;;;;;;;;;13.00;99.90;;;;;;5121832;28;19908;-54
2022/12/31 06:53:51;;;;;;;;;;;13.00;99.90;;;;;;5121526;28;19931;-49
2022/12/31 06:56:27;;;;;;;;;;;13.00;99.90;;;;;;5121704;28;19912;-51
2022/12/31 06:58:53;;;;;;;;;;;13.00;99.90;;;;;;5121125;28;19911;-49
2022/12/31 07:01:37;;;;;;;;;;;13.00;99.90;;;;;;5121171;28;19957;-51
2022/12/31 07:04:23;;;;;;;;;;;13.00;99.90;;;;;;5121661;28;20343;-53
2022/12/31 07:06:54;;;;;;;;;;;13.00;99.90;;;;;;5121244;28;19998;-52
2022/12/31 07:09:23;;;;;;;;;;;13.00;99.90;;;;;;5121657;28;20358;-53
2022/12/31 07:11:55;;;;;;;;;;;13.00;99.90;;;;;;5121237;28;20316;-52
2022/12/31 07:14:24;;;;;;;;;;;13.00;99.90;;;;;;5121453;28;19954;-52
2022/12/31 07:16:52;;;;;;;;;;;13.00;99.90;;;;;;5121002;28;20400;-53
2022/12/31 07:19:37;;;;;;;;;;;13.00;99.90;;;;;;5120844;28;19973;-53
2022/12/31 07:22:03;;;;;;;;;;;13.00;99.90;;;;;;5121022;28;19947;-53
2022/12/31 07:24:28;;;;;;;;;;;13.00;99.90;;;;;;5121268;28;19915;-53
2022/12/31 07:26:54;;;;;;;;;;;13.10;99.90;;;;;;5121579;28;20351;-50
2022/12/31 07:29:20;;;;;;;;;;;13.10;99.90;;;;;;5121103;28;19914;-48
2022/12/31 07:31:45;;;;;;;;;;;13.10;99.90;;;;;;5120977;28;19998;-50
2022/12/31 07:34:19;;;;;;;;;;;13.10;99.90;;;;;;5120813;28;19908;-51
2022/12/31 07:37:05;;;;;;;;;;;13.10;99.90;;;;;;5120563;28;19918;-53
2022/12/31 07:39:40;;;;;;;;;;;13.10;99.90;;;;;;5121175;28;19915;-51
2022/12/31 07:42:22;;;;;;;;;;;13.10;99.90;;;;;;5120724;28;19915;-49
2022/12/31 07:44:48;;;;;;;;;;;13.10;99.90;;;;;;5120518;28;19908;-53
2022/12/31 07:47:19;;;;;;;;;;;13.20;99.90;;;;;;5120526;28;19973;-47
2022/12/31 07:49:45;;;;;;;;;;;13.20;99.90;;;;;;5120689;28;19914;-50
2022/12/31 07:52:10;;;;;;;;;;;13.10;99.90;;;;;;5120611;28;19994;-52
2022/12/31 07:54:36;;;;;;;;;;;13.20;99.90;;;;;;5120294;28;19919;-50
2022/12/31 07:57:02;;;;;;;;;;;13.20;99.90;;;;;;5120642;28;19916;-51
2022/12/31 07:59:33;;;;;;;;;;;13.20;99.90;;;;;;5120534;28;20301;-50
2022/12/31 08:02:02;;;;;;;;;;;13.20;99.90;;;;;;5120051;28;19920;-49
2022/12/31 08:04:33;;;;;;;;;;;13.20;99.90;;;;;;5120643;28;19908;-51
2022/12/31 08:07:22;;;;;;;;;;;13.20;99.90;;;;;;5120382;28;19918;-48
2022/12/31 08:10:08;;;;;;;;;;;13.30;99.90;;;;;;5091247;28;19908;-51
2022/12/31 08:12:34;;;;;;;;;;;13.20;99.90;;;;;;5090852;28;19915;-50
2022/12/31 08:15:00;;;;;;;;;;;13.20;99.90;;;;;;5120007;28;19915;-53
2022/12/31 08:17:26;;;;;;;;;;;13.20;99.90;;;;;;5119847;28;19915;-50
2022/12/31 08:19:52;;;;;;;;;;;13.20;99.90;;;;;;5120188;28;20010;-49
2022/12/31 08:22:23;;;;;;;;;;;13.20;99.90;;;;;;5119874;28;19908;-51
2022/12/31 08:25:08;;;;;;;;;;;13.10;99.90;;;;;;5120062;28;20324;-47
2022/12/31 08:27:45;;;;;;;;;;;13.20;99.90;;;;;;5119719;28;19908;-53
2022/12/31 08:30:15;;;;;;;;;;;13.10;99.90;;;;;;5119408;28;19957;-52
2022/12/31 08:32:47;;;;;;;;;;;13.20;99.90;;;;;;5119225;28;19931;-50
2022/12/31 08:35:31;;;;;;;;;;;13.20;99.90;;;;;;5119791;28;19907;-52
2022/12/31 08:38:03;;;;;;;;;;;13.20;99.90;;;;;;5119701;28;19920;-51
2022/12/31 08:40:51;;;;;;;;;;;13.20;99.90;;;;;;5119485;28;19908;-49
2022/12/31 08:43:35;;;;;;;;;;;13.20;99.90;;;;;;5090805;28;20028;-53
2022/12/31 08:46:02;;;;;;;;;;;13.30;99.90;;;;;;5119291;28;20018;-51
2022/12/31 08:48:41;;;;;;;;;;;13.30;99.90;;;;;;5119558;28;19908;-49
2022/12/31 08:51:33;;;;;;;;;;;13.40;99.90;;;;;;5119140;28;19954;-53
2022/12/31 08:53:58;;;;;;;;;;;13.30;99.90;;;;;;5115775;28;19915;-47
2022/12/31 08:56:37;;;;;;;;;;;13.10;99.90;;;;;;5118832;28;19908;-52
2022/12/31 08:59:11;;;;;;;;;;;13.40;99.90;;;;;;5119077;28;20353;-50
2022/12/31 09:02:00;;;;;;;;;;;13.40;99.90;;;;;;5118438;28;20386;-51
2022/12/31 09:04:44;;;;;;;;;;;13.40;99.90;;;;;;5110355;28;20000;-51
2022/12/31 09:07:10;;;;;;;;;;;13.50;99.90;;;;;;5119065;28;19939;-51
2022/12/31 09:09:56;;;;;;;;;;;13.50;99.90;;;;;;5118766;28;19915;-53
2022/12/31 09:12:28;;;;;;;;;;;13.60;99.90;;;;;;5118763;28;19915;-51
2022/12/31 09:14:58;;;;;;;;;;;13.50;99.90;;;;;;5118831;28;19995;-51
2022/12/31 09:17:39;;;;;;;;;;;13.50;99.90;;;;;;5119082;28;19915;-52
2022/12/31 09:20:05;;;;;;;;;;;13.50;99.90;;;;;;5118733;28;19908;-50
2022/12/31 09:22:31;;;;;;;;;;;13.60;99.90;;;;;;5118487;28;19953;-49
2022/12/31 09:24:57;;;;;;;;;;;13.60;99.90;;;;;;5118876;28;19915;-52
2022/12/31 09:27:27;;;;;;;;;;;13.60;99.90;;;;;;5118483;28;19914;-50
2022/12/31 09:29:53;;;;;;;;;;;13.60;99.90;;;;;;5118757;28;19907;-52
2022/12/31 09:32:21;;;;;;;;;;;13.60;99.90;;;;;;5118376;28;19908;-52
2022/12/31 09:34:55;;;;;;;;;;;13.50;99.90;;;;;;5118565;28;19915;-46
2022/12/31 09:37:28;;;;;;;;;;;13.50;99.90;;;;;;5118476;28;19981;-52
2022/12/31 09:39:56;;;;;;;;;;;13.50;99.90;;;;;;5118581;28;19961;-50
2022/12/31 09:42:39;;;;;;;;;;;13.50;99.90;;;;;;5118184;28;20338;-49
2022/12/31 09:45:07;;;;;;;;;;;13.50;99.90;;;;;;5118441;28;19912;-54
2022/12/31 09:47:33;;;;;;;;;;;13.50;99.90;;;;;;5099999;28;19907;-49
2022/12/31 09:50:31;;;;;;;;;;;13.50;99.90;;;;;;5118515;28;19907;-49
2022/12/31 09:53:32;;;;;;;;;;;13.50;99.90;;;;;;5083963;28;19911;-52
2022/12/31 09:56:16;;;;;;;;;;;13.50;99.90;;;;;;5055475;28;20375;-49
2022/12/31 09:58:55;;;;;;;;;;;13.50;99.90;;;;;;5112679;28;19912;-50
2022/12/31 10:01:27;;;;;;;;;;;13.60;99.90;;;;;;5118115;28;19969;-52
2022/12/31 10:04:11;;;;;;;;;;;13.50;99.90;;;;;;5118548;28;19916;-51
2022/12/31 10:06:55;;;;;;;;;;;13.50;99.90;;;;;;5118104;28;19962;-52
2022/12/31 10:09:30;;;;;;;;;;;13.50;99.90;;;;;;5118036;28;20344;-52
2022/12/31 10:11:59;;;;;;;;;;;13.50;99.90;;;;;;5118231;28;19915;-52
2022/12/31 10:14:38;;;;;;;;;;;13.50;99.90;;;;;;5118211;28;19907;-52
2022/12/31 10:17:09;;;;;;;;;;;13.60;99.90;;;;;;5117899;28;19965;-52
2022/12/31 10:19:44;;;;;;;;;;;13.60;99.90;;;;;;5118039;28;19908;-53
2022/12/31 10:22:22;;;;;;;;;;;13.60;99.90;;;;;;5118123;28;19908;-51
2022/12/31 10:24:53;;;;;;;;;;;13.60;99.90;;;;;;5117922;28;19915;-52
2022/12/31 10:27:40;;;;;;;;;;;13.60;99.90;;;;;;5118097;28;19951;-50
2022/12/31 10:30:13;;;;;;;;;;;13.60;99.90;;;;;;5099374;28;19953;-54
2022/12/31 10:32:42;;;;;;;;;;;13.60;99.90;;;;;;5117864;28;19931;-52
2022/12/31 10:35:11;;;;;;;;;;;13.60;99.90;;;;;;5118168;28;19908;-50
2022/12/31 10:37:36;;;;;;;;;;;13.70;99.90;;;;;;5117742;28;19919;-51
2022/12/31 10:40:09;;;;;;;;;;;13.70;99.90;;;;;;5118012;28;20622;-52
2022/12/31 10:42:53;;;;;;;;;;;13.70;99.90;;;;;;5117737;28;19961;-51
2022/12/31 10:45:39;;;;;;;;;;;13.70;99.90;;;;;;5118149;28;19915;-50
2022/12/31 10:48:08;;;;;;;;;;;13.70;99.90;;;;;;5117127;28;19914;-52
2022/12/31 10:50:52;;;;;;;;;;;13.80;99.90;;;;;;5117814;28;19912;-50
2022/12/31 10:53:30;;;;;;;;;;;13.80;99.90;;;;;;5117809;28;19957;-50
2022/12/31 10:56:06;;;;;;;;;;;13.80;99.90;;;;;;5133228;27;19920;-51
2022/12/31 10:58:44;;;;;;;;;;;13.90;99.90;;;;;;5141782;27;19912;-48
2022/12/31 11:01:13;;;;;;;;;;;13.80;99.90;;;;;;5141830;27;19907;-51
2022/12/31 11:03:45;;;;;;;;;;;13.90;99.90;;;;;;5141751;27;19917;-51
2022/12/31 11:06:29;;;;;;;;;;;13.90;99.90;;;;;;5141671;27;19990;-50
2022/12/31 11:09:21;;;;;;;;;;;13.90;99.90;;;;;;5123068;27;19908;-54
2022/12/31 11:11:52;;;;;;;;;;;13.90;99.90;;;;;;5087407;28;19964;-50
2022/12/31 11:14:33;;;;;;;;;;;14.00;99.90;;;;;;5102543;28;20007;-48
2022/12/31 11:17:02;;;;;;;;;;;14.00;99.90;;;;;;5121045;28;19998;-49
2022/12/31 11:19:39;;;;;;;;;;;14.00;99.90;;;;;;5121010;28;20290;-52
2022/12/31 11:22:08;;;;;;;;;;;14.10;99.90;;;;;;5120791;28;19958;-51
2022/12/31 11:24:46;;;;;;;;;;;14.10;99.90;;;;;;5120681;28;20370;-52
2022/12/31 11:27:17;;;;;;;;;;;14.10;99.90;;;;;;5120866;28;19908;-53
2022/12/31 11:29:46;;;;;;;;;;;14.20;99.90;;;;;;5121030;28;20008;-54
2022/12/31 11:32:11;;;;;;;;;;;14.10;99.90;;;;;;5120938;28;20361;-54
2022/12/31 11:34:37;;;;;;;;;;;14.10;99.90;;;;;;5120944;28;19907;-54
2022/12/31 11:37:05;;;;;;;;;;;14.10;99.90;;;;;;5120714;28;19912;-51
2022/12/31 11:39:42;;;;;;;;;;;14.10;99.90;;;;;;5120631;28;19908;-54
2022/12/31 11:42:18;;;;;;;;;;;14.10;99.90;;;;;;5120996;28;19908;-54
2022/12/31 11:44:45;;;;;;;;;;;14.10;99.90;;;;;;5120685;27;19907;-54
2022/12/31 11:47:30;;;;;;;;;;;14.10;99.90;;;;;;5120637;28;19908;-52
2022/12/31 11:50:09;;;;;;;;;;;14.10;99.90;;;;;;5120286;28;20264;-53
2022/12/31 11:52:38;;;;;;;;;;;14.10;99.90;;;;;;5120335;28;19912;-53
2022/12/31 11:55:23;;;;;;;;;;;14.10;99.90;;;;;;5120470;28;19912;-52
2022/12/31 11:57:49;;;;;;;;;;;14.10;99.90;;;;;;5120036;28;20007;-52
2022/12/31 12:00:18;;;;;;;;;;;14.10;99.90;;;;;;5120339;28;19908;-54
2022/12/31 12:02:48;;;;;;;;;;;14.10;99.90;;;;;;5119939;28;19970;-52
2022/12/31 12:05:15;;;;;;;;;;;14.10;99.90;;;;;;5119440;28;19908;-49
2022/12/31 12:07:41;;;;;;;;;;;14.10;99.90;;;;;;5119959;28;19911;-55
2022/12/31 12:10:18;;;;;;;;;;;14.10;99.90;;;;;;5120190;28;19995;-55
2022/12/31 12:12:43;;;;;;;;;;;14.10;99.90;;;;;;5120044;28;19957;-52
2022/12/31 12:15:15;;;;;;;;;;;14.20;99.90;;;;;;5120315;28;19908;-51
2022/12/31 12:17:41;;;;;;;;;;;14.10;99.90;;;;;;5119755;28;20432;-52
2022/12/31 12:20:15;;;;;;;;;;;14.20;99.90;;;;;;5101663;28;19908;-52
2022/12/31 12:22:47;;;;;;;;;;;14.20;99.90;;;;;;5119682;28;20285;-52
2022/12/31 12:25:19;;;;;;;;;;;14.30;99.90;;;;;;5119698;28;19930;-53
2022/12/31 12:27:44;;;;;;;;;;;14.20;99.90;;;;;;5119067;28;19947;-52
2022/12/31 12:30:13;;;;;;;;;;;14.30;99.90;;;;;;5119244;28;19908;-47
2022/12/31 12:32:49;;;;;;;;;;;14.30;99.90;;;;;;5119564;28;19908;-53
2022/12/31 12:35:18;;;;;;;;;;;14.30;99.90;;;;;;5119564;28;19915;-55
2022/12/31 12:37:44;;;;;;;;;;;14.30;99.90;;;;;;5119279;28;19919;-53
2022/12/31 12:40:25;;;;;;;;;;;14.30;99.90;;;;;;5119507;28;20287;-51
2022/12/31 12:42:51;;;;;;;;;;;14.40;99.90;;;;;;5119116;28;19922;-53
2022/12/31 12:45:18;;;;;;;;;;;14.40;99.90;;;;;;5119344;28;19912;-52
2022/12/31 12:47:45;;;;;;;;;;;14.40;99.90;;;;;;5119207;28;20286;-54
2022/12/31 12:50:24;;;;;;;;;;;14.40;99.90;;;;;;5119312;28;19943;-52
2022/12/31 12:52:53;;;;;;;;;;;14.50;99.90;;;;;;5119175;28;19908;-50
2022/12/31 12:55:25;;;;;;;;;;;14.50;99.90;;;;;;5119093;28;19908;-51
2022/12/31 12:57:57;;;;;;;;;;;14.50;99.90;;;;;;5119026;28;19912;-52
2022/12/31 13:00:23;;;;;;;;;;;14.50;99.90;;;;;;5119256;28;19930;-54
2022/12/31 13:02:52;;;;;;;;;;;14.50;99.90;;;;;;5118716;28;20330;-51
2022/12/31 13:05:38;;;;;;;;;;;14.50;99.90;;;;;;5119172;28;19908;-54
2022/12/31 13:08:22;;;;;;;;;;;14.40;99.90;;;;;;5111249;28;19908;-54
2022/12/31 13:11:06;;;;;;;;;;;14.40;99.90;;;;;;5118929;28;19907;-54
2022/12/31 13:13:38;;;;;;;;;;;14.40;99.90;;;;;;5117670;28;19908;-53
2022/12/31 13:16:07;;;;;;;;;;;14.50;99.90;;;;;;5118100;28;19908;-52
2022/12/31 13:18:41;;;;;;;;;;;14.50;99.90;;;;;;5118230;28;20385;-52
2022/12/31 13:21:13;;;;;;;;;;;14.50;99.90;;;;;;5119149;28;19926;-52
2022/12/31 13:23:43;;;;;;;;;;;14.50;99.90;;;;;;5118627;28;19908;-55
2022/12/31 13:26:08;;;;;;;;;;;14.40;99.90;;;;;;5100216;28;20012;-51
2022/12/31 13:28:37;;;;;;;;;;;14.40;99.90;;;;;;5118596;28;19908;-54
2022/12/31 13:31:05;;;;;;;;;;;14.40;99.90;;;;;;5118830;28;19912;-51
2022/12/31 13:33:33;;;;;;;;;;;14.30;99.90;;;;;;5118444;28;20416;-54
2022/12/31 13:36:01;;;;;;;;;;;14.30;99.90;;;;;;5118553;28;20358;-52
2022/12/31 13:38:32;;;;;;;;;;;14.20;99.90;;;;;;5118400;28;19935;-52
2022/12/31 13:41:08;;;;;;;;;;;14.30;99.90;;;;;;5118387;28;19911;-55
2022/12/31 13:43:34;;;;;;;;;;;14.30;99.90;;;;;;5118428;28;19908;-52
2022/12/31 13:46:02;;;;;;;;;;;14.30;99.90;;;;;;5118432;28;19979;-54
2022/12/31 13:48:38;;;;;;;;;;;14.30;99.90;;;;;;5118429;28;20369;-53
2022/12/31 13:51:12;;;;;;;;;;;14.30;99.90;;;;;;5118368;28;19908;-55
2022/12/31 13:53:45;;;;;;;;;;;14.40;99.90;;;;;;5118460;28;19908;-54
2022/12/31 13:56:18;;;;;;;;;;;14.50;99.90;;;;;;5118132;28;19951;-54
2022/12/31 13:58:49;;;;;;;;;;;14.50;99.90;;;;;;5118165;28;19916;-55
2022/12/31 14:01:18;;;;;;;;;;;14.60;99.90;;;;;;5118372;28;19951;-52
2022/12/31 14:03:53;;;;;;;;;;;14.50;99.90;;;;;;5118644;28;19919;-55
2022/12/31 14:06:23;;;;;;;;;;;14.60;99.90;;;;;;5118106;28;19908;-51
2022/12/31 14:08:50;;;;;;;;;;;14.60;99.90;;;;;;5118475;28;19907;-54
2022/12/31 14:11:22;;;;;;;;;;;14.60;99.90;;;;;;5118246;28;19908;-53
2022/12/31 14:13:48;;;;;;;;;;;14.60;99.90;;;;;;5118008;28;20397;-51
2022/12/31 14:16:16;;;;;;;;;;;14.60;99.90;;;;;;5118127;28;19908;-53
2022/12/31 14:18:43;;;;;;;;;;;14.60;99.90;;;;;;5118111;28;19912;-50
2022/12/31 14:21:09;;;;;;;;;;;14.60;99.90;;;;;;5117978;28;19950;-55
2022/12/31 14:23:47;;;;;;;;;;;14.50;99.90;;;;;;5118124;28;19908;-53
2022/12/31 14:26:21;;;;;;;;;;;14.60;99.90;;;;;;5117873;28;20287;-51
2022/12/31 14:28:48;;;;;;;;;;;14.60;99.90;;;;;;5118517;28;19946;-55
2022/12/31 14:31:26;;;;;;;;;;;14.60;99.90;;;;;;5122049;28;19930;-51
2022/12/31 14:34:01;;;;;;;;;;;14.60;99.90;;;;;;5122125;28;19908;-51
2022/12/31 14:36:32;;;;;;;;;;;14.60;99.90;;;;;;5122026;28;20398;-52
2022/12/31 14:39:04;;;;;;;;;;;14.70;99.90;;;;;;5121949;28;19994;-53
2022/12/31 14:41:31;;;;;;;;;;;14.60;99.90;;;;;;5122077;28;19951;-52
2022/12/31 14:44:16;;;;;;;;;;;14.70;99.90;;;;;;5121869;28;20367;-55
2022/12/31 14:47:00;;;;;;;;;;;14.70;99.90;;;;;;5121694;28;19907;-53
2022/12/31 14:49:29;;;;;;;;;;;14.60;99.90;;;;;;5121781;28;19914;-54